createdAt,value
2023-07-20T00:01:22.967Z,88.10
2023-07-20T00:03:30.167Z,87.90
2023-07-20T00:05:37.556Z,87.90
2023-07-20T00:07:44.688Z,87.90
2023-07-20T00:09:53.916Z,87.90
2023-07-20T00:12:02.087Z,87.90
2023-07-20T00:14:09.667Z,87.90
2023-07-20T00:16:16.702Z,87.70
2023-07-20T00:18:24.481Z,87.80
2023-07-20T00:20:31.567Z,87.70
2023-07-20T00:22:39.059Z,87.60
2023-07-20T00:24:46.246Z,87.20
2023-07-20T00:26:56.026Z,87.00
2023-07-20T00:29:03.305Z,87.20
2023-07-20T00:31:10.713Z,87.20
2023-07-20T00:33:21.114Z,86.60
2023-07-20T00:35:28.542Z,86.20
2023-07-20T00:37:36.133Z,86.00
2023-07-20T00:39:43.519Z,85.90
2023-07-20T00:41:50.647Z,85.30
2023-07-20T00:44:00.441Z,85.40
2023-07-20T00:46:08.191Z,85.30
2023-07-20T00:48:16.902Z,85.60
2023-07-20T00:50:24.648Z,85.30
2023-07-20T00:52:33.365Z,85.30
2023-07-20T00:54:41.423Z,85.30
2023-07-20T00:56:49.774Z,84.60
2023-07-20T00:58:59.624Z,83.90
2023-07-20T01:01:09.811Z,83.80
2023-07-20T01:03:17.335Z,81.30
2023-07-20T01:05:26.029Z,82.80
2023-07-20T01:07:38.942Z,83.10
2023-07-20T01:09:46.843Z,83.50
2023-07-20T01:12:07.396Z,84.10
2023-07-20T01:14:18.649Z,83.50
2023-07-20T01:16:26.854Z,83.40
2023-07-20T01:18:34.055Z,83.60
2023-07-20T01:20:42.060Z,83.90
2023-07-20T01:23:35.906Z,84.10
2023-07-20T01:26:06.662Z,84.50
2023-07-20T01:28:42.468Z,84.70
2023-07-20T01:31:00.259Z,84.60
2023-07-20T01:33:10.706Z,84.20
2023-07-20T01:35:20.600Z,83.90
2023-07-20T01:37:31.786Z,84.00
2023-07-20T01:39:39.882Z,83.60
2023-07-20T01:41:47.367Z,83.10
2023-07-20T01:43:54.960Z,83.40
2023-07-20T01:46:02.375Z,83.00
2023-07-20T01:48:11.863Z,82.90
2023-07-20T01:50:19.274Z,82.60
2023-07-20T01:52:26.917Z,82.40
2023-07-20T01:54:34.007Z,82.30
2023-07-20T01:56:41.486Z,82.30
2023-07-20T01:58:48.667Z,82.10
2023-07-20T02:00:56.256Z,82.00
2023-07-20T02:03:03.527Z,81.80
2023-07-20T02:05:13.147Z,81.10
2023-07-20T02:07:20.293Z,81.40
2023-07-20T02:09:27.646Z,81.50
2023-07-20T02:11:34.986Z,81.70
2023-07-20T02:13:42.433Z,81.50
2023-07-20T02:15:49.552Z,81.60
2023-07-20T02:17:56.964Z,81.80
2023-07-20T02:20:05.446Z,82.00
2023-07-20T02:22:14.623Z,82.20
2023-07-20T02:24:21.703Z,82.30
2023-07-20T02:26:29.247Z,82.00
2023-07-20T02:28:36.380Z,81.70
2023-07-20T02:30:43.916Z,79.80
2023-07-20T02:32:51.067Z,80.70
2023-07-20T02:34:58.634Z,80.90
2023-07-20T02:37:05.867Z,81.10
2023-07-20T02:39:14.896Z,81.10
2023-07-20T02:41:22.388Z,81.40
2023-07-20T02:43:29.621Z,81.70
2023-07-20T02:45:37.105Z,81.30
2023-07-20T02:47:44.350Z,81.50
2023-07-20T02:49:52.287Z,81.10
2023-07-20T02:51:59.526Z,82.80
2023-07-20T02:54:07.324Z,82.50
2023-07-20T02:56:16.703Z,83.00
2023-07-20T02:58:24.138Z,83.30
2023-07-20T03:00:31.258Z,82.60
2023-07-20T03:02:38.720Z,83.00
2023-07-20T03:04:46.780Z,85.10
2023-07-20T03:06:54.139Z,85.80
2023-07-20T03:09:01.273Z,86.50
2023-07-20T03:11:08.874Z,87.00
2023-07-20T03:13:18.401Z,87.40
2023-07-20T03:15:26.761Z,87.90
2023-07-20T03:17:34.002Z,87.50
2023-07-20T03:19:42.557Z,87.50
2023-07-20T03:21:50.468Z,87.60
2023-07-20T03:23:58.353Z,87.90
2023-07-20T03:26:05.736Z,87.70
2023-07-20T03:28:13.381Z,88.10
2023-07-20T03:30:22.865Z,88.30
2023-07-20T03:32:30.181Z,88.70
2023-07-20T03:34:37.740Z,88.80
2023-07-20T03:36:44.927Z,89.00
2023-07-20T03:38:53.590Z,89.30
2023-07-20T03:41:02.104Z,89.20
2023-07-20T03:43:08.158Z,89.30
2023-07-20T03:45:16.055Z,89.20
2023-07-20T03:47:26.440Z,89.60
2023-07-20T03:49:33.516Z,90.00
2023-07-20T03:51:41.131Z,90.40
2023-07-20T03:53:48.263Z,90.50
2023-07-20T03:55:56.279Z,91.10
2023-07-20T03:58:03.874Z,91.40
2023-07-20T04:00:14.526Z,91.60
2023-07-20T04:02:21.342Z,91.50
2023-07-20T04:04:30.622Z,91.20
2023-07-20T04:06:37.959Z,91.20
2023-07-20T04:08:45.500Z,91.00
2023-07-20T04:10:52.639Z,91.10
2023-07-20T04:13:00.119Z,91.50
2023-07-20T04:15:08.527Z,91.70
2023-07-20T04:17:16.077Z,91.90
2023-07-20T04:19:23.512Z,92.20
2023-07-20T04:21:33.197Z,93.00
2023-07-20T04:23:40.940Z,93.00
2023-07-20T04:25:48.429Z,93.80
2023-07-20T04:27:55.865Z,93.60
2023-07-20T04:30:04.123Z,94.50
2023-07-20T04:32:12.332Z,95.50
2023-07-20T04:34:19.774Z,95.80
2023-07-20T04:36:27.719Z,95.70
2023-07-20T04:38:37.618Z,96.80
2023-07-20T04:41:01.557Z,96.70
2023-07-20T04:43:09.753Z,97.20
2023-07-20T04:45:17.589Z,97.10
2023-07-20T04:47:24.791Z,97.40
2023-07-20T04:49:32.936Z,97.40
2023-07-20T04:51:40.159Z,97.30
2023-07-20T04:53:49.646Z,96.10
2023-07-20T04:55:56.878Z,94.80
2023-07-20T04:58:05.666Z,95.00
2023-07-20T05:00:15.340Z,94.40
2023-07-20T05:02:22.772Z,93.80
2023-07-20T05:04:37.298Z,94.50
2023-07-20T05:06:46.456Z,94.60
2023-07-20T05:08:55.744Z,94.80
2023-07-20T05:11:05.022Z,94.60
2023-07-20T05:13:12.250Z,93.90
2023-07-20T05:15:19.950Z,93.60
2023-07-20T05:17:27.141Z,94.30
2023-07-20T05:19:34.869Z,94.50
2023-07-20T05:21:42.007Z,94.40
2023-07-20T05:23:50.164Z,93.90
2023-07-20T05:26:02.513Z,94.20
2023-07-20T05:28:10.328Z,93.30
2023-07-20T05:30:17.693Z,91.50
2023-07-20T05:32:25.308Z,91.40
2023-07-20T05:34:32.418Z,91.00
2023-07-20T05:36:40.771Z,90.30
2023-07-20T05:38:47.958Z,90.20
2023-07-20T05:40:55.491Z,89.60
2023-07-20T05:43:04.303Z,90.20
2023-07-20T05:45:12.617Z,88.70
2023-07-20T05:47:20.676Z,88.90
2023-07-20T05:49:28.163Z,89.10
2023-07-20T05:51:36.468Z,89.40
2023-07-20T05:53:43.914Z,88.50
2023-07-20T05:55:57.714Z,88.50
2023-07-20T05:58:06.923Z,87.30
2023-07-20T06:00:15.568Z,87.50
2023-07-20T06:02:23.264Z,86.30
2023-07-20T06:04:29.147Z,86.20
2023-07-20T06:06:36.881Z,85.40
2023-07-20T06:08:43.955Z,85.40
2023-07-20T06:10:55.594Z,85.60
2023-07-20T06:13:02.882Z,84.70
2023-07-20T06:15:30.028Z,84.60
2023-07-20T06:17:38.761Z,85.20
2023-07-20T06:19:47.717Z,85.10
2023-07-20T06:21:54.897Z,84.00
2023-07-20T06:24:02.724Z,82.90
2023-07-20T06:26:11.462Z,82.90
2023-07-20T06:28:20.285Z,83.00
2023-07-20T06:30:29.851Z,82.40
2023-07-20T06:32:37.397Z,83.30
2023-07-20T06:34:44.907Z,82.90
2023-07-20T06:36:52.351Z,83.30
2023-07-20T06:45:31.458Z,82.60
2023-07-20T06:47:38.803Z,82.60
2023-07-20T06:49:46.280Z,82.30
2023-07-20T06:51:53.513Z,80.90
2023-07-20T06:54:01.264Z,80.00
2023-07-20T06:56:09.461Z,80.60
2023-07-20T06:58:17.110Z,79.00
2023-07-20T07:00:24.929Z,79.60
2023-07-20T07:02:34.205Z,78.10
2023-07-20T07:04:41.643Z,77.70
2023-07-20T07:06:49.113Z,75.30
2023-07-20T07:08:56.548Z,74.50
2023-07-20T07:11:03.937Z,74.80
2023-07-20T07:13:11.269Z,75.00
2023-07-20T07:15:18.655Z,77.90
2023-07-20T07:17:25.909Z,77.30
2023-07-20T07:19:35.128Z,75.90
2023-07-20T07:21:42.302Z,77.30
2023-07-20T07:23:50.308Z,78.50
2023-07-20T07:25:57.487Z,78.40
2023-07-20T07:28:04.920Z,78.70
2023-07-20T07:30:11.540Z,79.00
2023-07-20T07:32:19.487Z,78.40
2023-07-20T07:34:27.337Z,78.50
2023-07-20T07:36:36.616Z,78.90
2023-07-20T07:40:53.539Z,79.40
2023-07-20T07:43:00.935Z,80.00
2023-07-20T07:45:09.084Z,80.20
2023-07-20T07:47:16.868Z,79.70
2023-07-20T07:49:24.522Z,80.70
2023-07-20T07:51:31.969Z,80.50
2023-07-20T07:53:41.357Z,80.30
2023-07-20T07:55:48.938Z,80.90
2023-07-20T07:57:56.079Z,80.50
2023-07-20T08:00:03.449Z,81.20
2023-07-20T08:02:11.705Z,80.30
2023-07-20T08:04:19.092Z,79.30
2023-07-20T08:06:26.939Z,79.30
2023-07-20T08:08:34.645Z,78.10
2023-07-20T08:10:43.615Z,78.60
2023-07-20T08:12:49.558Z,77.70
2023-07-20T08:14:57.032Z,78.60
2023-07-20T08:17:04.517Z,77.80
2023-07-20T08:19:11.773Z,78.50
2023-07-20T08:21:19.164Z,78.80
2023-07-20T08:23:26.749Z,79.20
2023-07-20T08:25:33.982Z,79.30
2023-07-20T08:27:43.727Z,79.30
2023-07-20T08:29:51.117Z,79.00
2023-07-20T08:31:58.600Z,79.00
2023-07-20T08:34:16.115Z,79.30
2023-07-20T08:36:29.347Z,77.10
2023-07-20T08:38:36.580Z,78.10
2023-07-20T08:40:47.958Z,77.50
2023-07-20T08:42:58.824Z,75.30
2023-07-20T08:45:09.744Z,74.50
2023-07-20T08:47:18.258Z,75.70
2023-07-20T08:49:25.800Z,75.80
2023-07-20T08:51:33.644Z,76.80
2023-07-20T08:53:41.083Z,76.90
2023-07-20T08:55:50.123Z,76.20
2023-07-20T08:58:00.720Z,75.60
2023-07-20T09:00:11.898Z,75.50
2023-07-20T09:02:22.277Z,76.30
2023-07-20T09:04:29.545Z,76.50
2023-07-20T09:06:37.184Z,76.50
2023-07-20T09:08:44.818Z,76.80
2023-07-20T09:10:52.262Z,76.50
2023-07-20T09:12:59.745Z,77.40
2023-07-20T09:15:07.457Z,78.30
2023-07-20T09:17:18.602Z,78.50
2023-07-20T09:19:26.550Z,78.80
2023-07-20T09:21:35.136Z,79.00
2023-07-20T09:23:43.690Z,78.40
2023-07-20T09:25:56.824Z,79.00
2023-07-20T09:28:08.147Z,79.40
2023-07-20T09:30:18.769Z,79.30
2023-07-20T09:32:27.271Z,79.10
2023-07-20T09:43:36.417Z,77.80
2023-07-20T09:54:37.201Z,78.70
2023-07-20T09:56:46.578Z,79.20
2023-07-20T09:58:55.809Z,79.30
2023-07-20T10:01:06.318Z,79.10
2023-07-20T10:03:16.370Z,79.10
2023-07-20T10:05:25.057Z,79.00
2023-07-20T10:07:34.313Z,79.20
2023-07-20T10:09:46.943Z,79.70
2023-07-20T10:14:13.299Z,80.50
2023-07-20T10:16:26.895Z,80.30
2023-07-20T10:18:39.404Z,80.00
2023-07-20T10:23:00.121Z,79.80
2023-07-20T10:25:08.835Z,79.70
2023-07-20T10:27:16.940Z,79.50
2023-07-20T10:29:26.550Z,79.30
2023-07-20T10:33:43.919Z,79.10
2023-07-20T10:35:57.444Z,79.10
2023-07-20T10:38:06.566Z,78.80
2023-07-20T10:40:36.618Z,79.20
2023-07-20T10:42:44.586Z,78.70
2023-07-20T10:44:55.808Z,79.40
2023-07-20T10:47:08.011Z,79.70
2023-07-20T10:49:17.975Z,79.80
2023-07-20T10:51:27.825Z,80.10
2023-07-20T10:53:36.765Z,80.20
2023-07-20T10:55:44.374Z,79.90
2023-07-20T10:58:12.748Z,79.90
2023-07-20T11:00:25.773Z,79.40
2023-07-20T11:02:45.778Z,79.90
2023-07-20T11:04:53.327Z,80.30
2023-07-20T11:07:03.097Z,80.30
2023-07-20T11:09:13.035Z,80.60
2023-07-20T11:11:30.598Z,80.50
2023-07-20T11:13:37.830Z,80.60
2023-07-20T11:16:06.246Z,80.60
2023-07-20T11:18:20.184Z,80.90
2023-07-20T11:20:29.280Z,81.30
2023-07-20T11:22:37.481Z,81.60
2023-07-20T11:24:45.065Z,81.50
2023-07-20T11:26:52.203Z,81.60
2023-07-20T11:28:59.642Z,81.90
2023-07-20T11:31:08.585Z,82.00
2023-07-20T11:33:16.058Z,82.00
2023-07-20T11:35:25.799Z,82.10
2023-07-20T11:37:33.626Z,82.30
2023-07-20T11:39:40.930Z,82.30
2023-07-20T11:41:52.385Z,82.50
2023-07-20T11:44:01.384Z,82.60
2023-07-20T11:46:12.107Z,82.80
2023-07-20T11:48:22.094Z,83.70
2023-07-20T11:50:29.582Z,84.50
2023-07-20T11:52:37.540Z,84.80
2023-07-20T11:54:48.535Z,85.20
2023-07-20T11:56:58.804Z,85.40
2023-07-20T11:59:06.399Z,85.30
2023-07-20T12:01:16.951Z,85.60
2023-07-20T12:03:24.553Z,85.80
2023-07-20T12:05:31.890Z,85.70
2023-07-20T12:07:42.756Z,85.70
2023-07-20T12:10:06.742Z,86.00
2023-07-20T12:12:15.598Z,86.40
2023-07-20T12:14:22.734Z,86.40
2023-07-20T12:16:33.113Z,87.00
2023-07-20T12:18:40.879Z,87.50
2023-07-20T12:20:48.576Z,87.60
2023-07-20T12:22:56.423Z,87.80
2023-07-20T12:25:03.862Z,87.90
2023-07-20T12:27:11.196Z,88.10
2023-07-20T12:29:18.635Z,88.20
2023-07-20T12:31:27.134Z,88.00
2023-07-20T12:33:36.379Z,87.90
2023-07-20T12:35:43.504Z,88.00
2023-07-20T12:37:53.053Z,88.10
2023-07-20T12:40:00.166Z,88.00
2023-07-20T12:42:08.021Z,87.90
2023-07-20T12:44:15.048Z,88.20
2023-07-20T12:46:22.869Z,88.30
2023-07-20T12:48:30.395Z,88.40
2023-07-20T12:50:39.461Z,88.60
2023-07-20T12:52:46.590Z,88.70
2023-07-20T12:54:52.697Z,88.70
2023-07-20T12:59:10.286Z,89.10
2023-07-20T13:01:18.092Z,89.40
2023-07-20T13:09:58.537Z,89.00
2023-07-20T13:12:05.827Z,88.80
2023-07-20T13:14:14.028Z,89.10
2023-07-20T13:16:21.175Z,89.10
2023-07-20T13:18:28.594Z,88.90
2023-07-20T13:20:35.724Z,88.60
2023-07-20T13:22:43.419Z,88.70
2023-07-20T13:24:52.622Z,88.70
2023-07-20T13:27:00.392Z,89.30
2023-07-20T13:29:07.424Z,89.70
2023-07-20T13:31:15.997Z,89.80
2023-07-20T13:33:23.403Z,89.70
2023-07-20T13:35:49.079Z,89.60
2023-07-20T13:37:56.331Z,89.60
2023-07-20T13:40:07.384Z,89.50
2023-07-20T13:42:15.265Z,89.50
2023-07-20T13:44:24.572Z,89.60
2023-07-20T13:48:42.542Z,89.50
2023-07-20T13:51:00.214Z,89.20
2023-07-20T13:56:20.790Z,89.10
2023-07-20T13:57:48.518Z,88.80
2023-07-20T13:59:54.285Z,89.10
2023-07-20T14:04:11.856Z,89.70
2023-07-20T14:06:22.457Z,90.00
2023-07-20T14:08:32.213Z,89.80
2023-07-20T14:12:51.183Z,89.40
2023-07-20T14:14:59.669Z,89.60
2023-07-20T14:17:05.853Z,89.80
2023-07-20T14:19:13.337Z,90.00
2023-07-20T14:21:19.616Z,90.20
2023-07-20T14:23:27.330Z,90.50
2023-07-20T14:25:38.023Z,90.90
2023-07-20T14:27:47.722Z,91.40
2023-07-20T14:29:55.286Z,91.70
2023-07-20T14:32:03.544Z,91.90
2023-07-20T14:34:10.674Z,92.10
2023-07-20T14:38:26.224Z,92.50
2023-07-20T14:40:33.759Z,92.50
2023-07-20T14:42:40.935Z,92.20
2023-07-20T14:44:50.701Z,92.50
2023-07-20T14:47:12.315Z,92.80
2023-07-20T14:49:22.203Z,93.00
2023-07-20T14:53:44.289Z,93.20
2023-07-20T14:55:51.478Z,93.00
2023-07-20T14:57:58.862Z,93.10
2023-07-20T15:00:10.245Z,93.20
2023-07-20T15:02:18.093Z,93.40
2023-07-20T15:04:25.215Z,93.50
2023-07-20T15:06:32.509Z,93.50
2023-07-20T15:08:39.681Z,93.50
2023-07-20T15:10:48.756Z,93.60
2023-07-20T15:12:55.842Z,93.70
2023-07-20T15:15:11.261Z,93.90
2023-07-20T15:17:18.448Z,94.00
2023-07-20T15:19:26.091Z,94.10
2023-07-20T15:21:33.778Z,94.20
2023-07-20T15:23:40.961Z,94.30
2023-07-20T15:25:48.145Z,94.20
2023-07-20T15:27:57.311Z,94.40
2023-07-20T15:30:03.276Z,94.50
2023-07-20T15:32:13.169Z,94.60
2023-07-20T15:34:20.197Z,94.70
2023-07-20T15:36:27.841Z,94.90
2023-07-20T15:38:36.097Z,95.10
2023-07-20T15:40:48.298Z,95.00
2023-07-20T15:42:55.382Z,95.10
2023-07-20T15:45:02.867Z,95.40
2023-07-20T15:47:12.265Z,95.50
2023-07-20T15:49:19.784Z,95.80
2023-07-20T15:51:27.176Z,96.00
2023-07-20T15:53:34.621Z,96.20
2023-07-20T15:57:49.537Z,96.60
2023-07-20T15:59:57.043Z,96.80
2023-07-20T16:02:06.766Z,96.90
2023-07-20T16:04:15.851Z,97.00
2023-07-20T16:06:23.178Z,97.00
2023-07-20T16:08:30.316Z,97.00
2023-07-20T16:10:37.696Z,97.10
2023-07-20T16:12:43.667Z,97.30
2023-07-20T16:17:01.131Z,97.90
2023-07-20T16:19:08.530Z,98.00
2023-07-20T16:21:17.854Z,98.00
2023-07-20T16:23:25.033Z,98.10
2023-07-20T16:25:32.276Z,98.60
2023-07-20T16:27:39.354Z,98.80
2023-07-20T16:29:46.732Z,98.90
2023-07-20T16:34:06.485Z,98.90
2023-07-20T16:36:16.495Z,98.70
2023-07-20T16:38:23.856Z,98.60
2023-07-20T16:40:55.501Z,98.60
2023-07-20T16:45:09.057Z,98.60
2023-07-20T16:47:16.482Z,98.60
2023-07-20T16:49:23.636Z,98.60
2023-07-20T16:51:32.902Z,98.50
2023-07-20T16:53:40.033Z,98.50
2023-07-20T16:55:47.575Z,98.80
2023-07-20T16:57:54.755Z,98.90
2023-07-20T17:00:02.222Z,98.90
2023-07-20T17:02:09.915Z,98.80
2023-07-20T17:04:17.325Z,98.90
2023-07-20T17:06:24.460Z,98.80
2023-07-20T17:08:33.582Z,99.10
2023-07-20T17:10:40.408Z,99.30
2023-07-20T17:12:47.853Z,99.50
2023-07-20T17:14:54.982Z,99.90
2023-07-20T17:17:02.339Z,99.90
2023-07-20T17:19:11.329Z,99.90
2023-07-20T17:21:19.488Z,99.90
2023-07-20T17:30:07.815Z,99.90
2023-07-20T17:32:14.948Z,99.90
2023-07-20T17:34:22.344Z,99.90
2023-07-20T17:38:42.733Z,99.80
2023-07-20T17:40:52.077Z,99.70
2023-07-20T17:45:10.145Z,99.90
2023-07-20T17:49:27.409Z,99.90
2023-07-20T17:51:34.847Z,99.90
2023-07-20T17:53:41.926Z,99.90
2023-07-20T17:55:51.156Z,99.90
2023-07-20T17:57:58.289Z,99.90
2023-07-20T18:02:16.705Z,99.90
2023-07-20T18:04:24.207Z,99.90
2023-07-20T18:06:31.467Z,99.90
2023-07-20T18:08:39.724Z,99.90
2023-07-20T18:10:46.759Z,99.90
2023-07-20T18:12:55.990Z,99.90
2023-07-20T18:15:03.065Z,99.80
2023-07-20T18:17:09.325Z,99.70
2023-07-20T18:19:16.512Z,99.70
2023-07-20T18:21:24.168Z,99.90
2023-07-20T18:23:30.466Z,99.90
2023-07-20T18:25:38.052Z,99.90
2023-07-20T18:27:45.236Z,99.90
2023-07-20T18:29:55.023Z,99.90
2023-07-20T18:32:02.275Z,99.80
2023-07-20T18:34:09.641Z,99.60
2023-07-20T18:36:16.878Z,99.60
2023-07-20T18:38:24.105Z,99.40
2023-07-20T18:40:31.549Z,99.60
2023-07-20T18:42:39.097Z,99.70
2023-07-20T18:44:48.630Z,99.90
2023-07-20T18:46:58.950Z,99.90
2023-07-20T18:49:06.259Z,99.90
2023-07-20T18:51:13.439Z,99.90
2023-07-20T18:53:20.930Z,99.90
2023-07-20T18:55:28.216Z,99.90
2023-07-20T18:57:35.856Z,99.90
2023-07-20T18:59:43.808Z,99.90
2023-07-20T19:01:50.062Z,99.90
2023-07-20T19:03:59.485Z,99.90
2023-07-20T19:06:07.198Z,99.90
2023-07-20T19:08:14.632Z,99.90
2023-07-20T19:10:22.283Z,99.90
2023-07-20T19:12:29.456Z,99.90
2023-07-20T19:14:37.086Z,99.90
2023-07-20T19:16:44.691Z,99.90
2023-07-20T19:18:55.518Z,99.90
2023-07-20T19:21:06.326Z,99.90
2023-07-20T19:23:13.918Z,99.90
2023-07-20T19:25:21.148Z,99.90
2023-07-20T19:27:29.803Z,99.90
2023-07-20T19:29:37.616Z,99.90
2023-07-20T19:31:46.418Z,99.90
2023-07-20T19:33:54.278Z,99.90
2023-07-20T19:36:02.280Z,99.90
2023-07-20T19:38:11.716Z,99.90
2023-07-20T19:40:19.052Z,99.90
2023-07-20T19:42:27.100Z,99.90
2023-07-20T19:44:35.049Z,99.90
2023-07-20T19:46:43.628Z,99.90
2023-07-20T19:48:52.029Z,99.90
2023-07-20T19:50:59.363Z,99.90
2023-07-20T19:53:29.973Z,99.90
2023-07-20T19:55:36.251Z,99.90
2023-07-20T19:57:43.591Z,99.90
2023-07-20T19:59:51.079Z,99.90
2023-07-20T20:01:58.206Z,99.90
2023-07-20T20:06:14.362Z,99.90
2023-07-20T20:08:22.367Z,99.90
2023-07-20T20:10:29.896Z,99.90
2023-07-20T20:12:58.341Z,99.90
2023-07-20T20:15:05.467Z,99.90
2023-07-20T20:17:12.901Z,99.90
2023-07-20T20:19:21.347Z,99.90
2023-07-20T20:21:28.852Z,99.90
2023-07-20T20:23:35.953Z,99.90
2023-07-20T20:25:43.522Z,99.90
2023-07-20T20:27:50.554Z,99.90
2023-07-20T20:29:59.677Z,99.90
2023-07-20T20:32:07.600Z,99.90
2023-07-20T20:34:15.069Z,99.90
2023-07-20T20:36:20.827Z,99.90
2023-07-20T20:38:28.823Z,99.90
2023-07-20T20:40:35.892Z,99.90
2023-07-20T20:42:43.431Z,99.90
2023-07-20T20:44:50.567Z,99.90
2023-07-20T20:47:02.612Z,99.90
2023-07-20T20:49:08.881Z,99.90
2023-07-20T20:51:16.458Z,99.90
2023-07-20T20:53:23.589Z,99.90
2023-07-20T20:55:31.079Z,99.90
2023-07-20T20:57:38.222Z,99.90
2023-07-20T20:59:49.496Z,99.90
2023-07-20T21:01:58.359Z,99.90
2023-07-20T21:04:05.812Z,99.90
2023-07-20T21:06:12.877Z,99.90
2023-07-20T21:08:20.161Z,99.90
2023-07-20T21:10:27.653Z,99.90
2023-07-20T21:12:35.186Z,99.90
2023-07-20T21:14:42.475Z,99.90
2023-07-20T21:16:49.825Z,99.90
2023-07-20T21:18:58.676Z,99.90
2023-07-20T21:21:06.115Z,99.90
2023-07-20T21:23:13.456Z,99.90
2023-07-20T21:25:21.356Z,99.90
2023-07-20T21:27:28.427Z,99.90
2023-07-20T21:29:35.932Z,99.90
2023-07-20T21:31:43.367Z,99.90
2023-07-20T21:33:50.485Z,99.90
2023-07-20T21:35:59.410Z,99.90
2023-07-20T21:38:06.861Z,99.90
2023-07-20T21:40:14.488Z,99.90
2023-07-20T21:42:22.183Z,99.90
2023-07-20T21:44:29.225Z,99.90
2023-07-20T21:46:37.449Z,99.90
2023-07-20T21:48:44.667Z,99.90
2023-07-20T21:50:52.598Z,99.90
2023-07-20T21:53:01.620Z,99.90
2023-07-20T21:55:09.933Z,99.90
2023-07-20T21:57:16.955Z,99.90
2023-07-20T21:59:24.395Z,99.90
2023-07-20T22:03:40.401Z,99.90
2023-07-20T22:05:48.611Z,99.90
2023-07-20T22:07:57.060Z,99.90
2023-07-20T22:10:06.292Z,99.90
2023-07-20T22:12:14.601Z,99.90
2023-07-20T22:14:22.873Z,99.90
2023-07-20T22:16:30.320Z,99.90
2023-07-20T22:18:37.496Z,99.90
2023-07-20T22:20:45.335Z,99.90
2023-07-20T22:22:52.512Z,99.90
2023-07-20T22:25:00.718Z,99.90
2023-07-20T22:27:10.915Z,99.90
2023-07-20T22:29:18.459Z,99.90
2023-07-20T22:31:25.663Z,99.90
2023-07-20T22:33:33.279Z,99.90
2023-07-20T22:35:40.564Z,99.90
2023-07-20T22:37:49.076Z,99.90
2023-07-20T22:39:56.268Z,99.90
2023-07-20T22:42:04.790Z,99.90
2023-07-20T22:44:13.747Z,99.90
2023-07-20T22:46:21.214Z,99.90
2023-07-20T22:48:29.853Z,99.90
2023-07-20T22:50:37.546Z,99.90
2023-07-20T22:52:48.114Z,99.90
2023-07-20T22:54:55.594Z,99.90
2023-07-20T22:57:02.888Z,99.90
2023-07-20T22:59:12.470Z,99.90
2023-07-20T23:01:19.695Z,99.90
2023-07-20T23:03:27.348Z,99.90
2023-07-20T23:05:34.676Z,99.90
2023-07-20T23:07:41.804Z,99.90
2023-07-20T23:09:49.404Z,99.90
2023-07-20T23:11:56.538Z,99.90
2023-07-20T23:14:03.928Z,99.90
2023-07-20T23:16:12.925Z,99.90
2023-07-20T23:18:20.334Z,99.90
2023-07-20T23:20:30.373Z,99.90
2023-07-20T23:22:37.812Z,99.90
2023-07-20T23:24:44.976Z,99.90
2023-07-20T23:26:51.152Z,99.90
2023-07-20T23:28:58.641Z,99.90
2023-07-20T23:31:06.264Z,99.90
2023-07-20T23:33:15.722Z,99.90
2023-07-20T23:35:23.620Z,99.90
2023-07-20T23:37:30.753Z,99.90
2023-07-20T23:39:38.183Z,99.90
2023-07-20T23:41:45.316Z,99.90
2023-07-20T23:43:53.777Z,99.90
2023-07-20T23:46:03.262Z,99.90
2023-07-20T23:48:14.848Z,99.90
2023-07-20T23:50:22.130Z,99.90
2023-07-20T23:52:30.902Z,99.90
2023-07-20T23:54:38.034Z,99.90
2023-07-20T23:56:45.365Z,99.90
2023-07-20T23:58:52.803Z,99.90
